Time;durP1;ratioP1;P1;durP2;ratioP2;P2;SDS_P1;SDS_P2;PMS_P1;PMS_P2;Temp;Humidity;BMP_temperature;BMP_pressure;BME280_temperature;BME280_humidity;BME280_pressure;Samples;Min_cycle;Max_cycle;Signal;HPM_P1;HPM_P2
2021/07/30 00:00:56;;;;;;;1.53;1.00;;;17.00;95.70;;;;;;4977757;28;20857;-76
2021/07/30 00:03:24;;;;;;;2.90;2.70;;;17.00;95.90;;;;;;4980522;28;20458;-77
2021/07/30 00:05:51;;;;;;;1.50;1.00;;;17.00;96.20;;;;;;4978202;28;20977;-76
2021/07/30 00:08:18;;;;;;;1.50;1.00;;;17.00;96.20;;;;;;4985723;28;20485;-76
2021/07/30 00:10:45;;;;;;;1.50;1.00;;;17.00;96.20;;;;;;4986157;28;20465;-75
2021/07/30 00:13:12;;;;;;;1.50;1.00;;;17.00;96.10;;;;;;4975130;28;20487;-76
2021/07/30 00:15:38;;;;;;;1.50;1.00;;;17.00;96.10;;;;;;4988441;28;20473;-76
2021/07/30 00:18:06;;;;;;;1.50;1.00;;;17.10;96.00;;;;;;4973940;28;20613;-77
2021/07/30 00:20:34;;;;;;;1.50;1.00;;;17.10;95.60;;;;;;4988734;28;20476;-77
2021/07/30 00:23:01;;;;;;;1.50;0.90;;;17.10;95.70;;;;;;4973490;28;21012;-77
2021/07/30 00:25:27;;;;;;;1.50;1.00;;;17.10;95.80;;;;;;4988186;28;21004;-78
2021/07/30 00:27:54;;;;;;;1.50;0.90;;;17.10;95.60;;;;;;4972165;28;21118;-77
2021/07/30 00:30:21;;;;;;;4.67;1.73;;;17.20;95.50;;;;;;4987234;28;20476;-77
2021/07/30 00:32:48;;;;;;;1.50;1.00;;;17.20;95.80;;;;;;4973217;28;20477;-77
2021/07/30 00:35:15;;;;;;;1.50;1.00;;;17.20;95.90;;;;;;4984294;28;20457;-76
2021/07/30 00:37:43;;;;;;;1.50;0.90;;;17.10;95.90;;;;;;4973148;28;20481;-74
2021/07/30 00:40:10;;;;;;;1.50;1.00;;;17.10;96.10;;;;;;4986675;28;20469;-76
2021/07/30 00:42:47;;;;;;;1.50;1.10;;;17.10;96.10;;;;;;4968601;28;20477;-74
2021/07/30 00:45:13;;;;;;;1.47;0.90;;;17.20;96.00;;;;;;4986903;28;20457;-74
2021/07/30 00:47:40;;;;;;;1.50;1.00;;;17.20;96.40;;;;;;4975800;28;20573;-75
2021/07/30 00:50:08;;;;;;;1.50;1.00;;;17.20;96.00;;;;;;4991074;28;20487;-74
2021/07/30 00:52:35;;;;;;;1.50;1.00;;;17.20;96.20;;;;;;4977092;28;20477;-74
2021/07/30 00:55:03;;;;;;;1.50;1.00;;;17.20;95.90;;;;;;4991919;28;20536;-75
2021/07/30 00:57:30;;;;;;;1.50;0.90;;;17.20;95.70;;;;;;4973620;28;20488;-75
2021/07/30 00:59:57;;;;;;;1.50;1.00;;;17.20;95.90;;;;;;4984964;28;20476;-76
2021/07/30 01:02:26;;;;;;;1.50;1.00;;;17.30;96.20;;;;;;4981718;28;20910;-75
2021/07/30 01:04:53;;;;;;;1.50;1.00;;;17.30;95.80;;;;;;4997672;28;20453;-75
2021/07/30 01:07:20;;;;;;;1.50;0.90;;;17.30;95.50;;;;;;4975087;28;20500;-75
2021/07/30 01:09:47;;;;;;;1.50;0.90;;;17.30;95.30;;;;;;4989970;28;20469;-76
2021/07/30 01:12:16;;;;;;;1.50;1.00;;;17.40;95.70;;;;;;4980106;28;20493;-74
2021/07/30 01:14:43;;;;;;;1.50;0.90;;;17.40;95.70;;;;;;4986403;28;20477;-75
2021/07/30 01:17:09;;;;;;;1.50;0.90;;;17.40;95.70;;;;;;4977749;28;21010;-76
2021/07/30 01:19:36;;;;;;;1.50;1.00;;;17.40;95.60;;;;;;4988436;28;20475;-75
2021/07/30 01:22:17;;;;;;;1.50;1.00;;;17.40;96.20;;;;;;4976988;28;20484;-77
2021/07/30 01:24:46;;;;;;;1.50;1.00;;;17.30;95.90;;;;;;4983605;28;20468;-75
2021/07/30 01:27:12;;;;;;;1.50;1.00;;;17.30;96.30;;;;;;4977591;28;20489;-76
2021/07/30 01:29:39;;;;;;;1.50;0.97;;;17.30;96.30;;;;;;4985914;28;20504;-76
2021/07/30 01:32:07;;;;;;;1.50;0.90;;;17.30;96.10;;;;;;4973024;28;20473;-76
2021/07/30 01:34:33;;;;;;;1.50;0.90;;;17.30;96.00;;;;;;4985448;28;20543;-77
2021/07/30 01:37:00;;;;;;;1.50;1.00;;;17.30;95.80;;;;;;4978266;28;20488;-77
2021/07/30 01:39:27;;;;;;;1.50;0.90;;;17.30;96.10;;;;;;4984140;28;20465;-78
2021/07/30 01:41:55;;;;;;;1.50;1.00;;;17.30;96.30;;;;;;4980178;28;20655;-77
2021/07/30 01:44:22;;;;;;;1.50;1.00;;;17.30;96.30;;;;;;4989766;28;20459;-76
2021/07/30 01:46:49;;;;;;;1.50;0.90;;;17.30;96.10;;;;;;4976911;28;20488;-76
2021/07/30 01:49:16;;;;;;;1.50;1.00;;;17.30;96.40;;;;;;4988594;28;20826;-76
2021/07/30 01:51:42;;;;;;;1.50;1.00;;;17.30;96.40;;;;;;4979166;28;21015;-77
2021/07/30 01:54:09;;;;;;;1.50;1.00;;;17.30;96.20;;;;;;4983329;28;20480;-76
2021/07/30 01:56:36;;;;;;;1.50;1.00;;;17.20;96.30;;;;;;4977275;28;20507;-76
2021/07/30 01:59:04;;;;;;;1.50;0.90;;;17.30;96.10;;;;;;4968941;28;20957;-77
2021/07/30 02:01:31;;;;;;;1.50;1.00;;;17.20;96.50;;;;;;4976523;28;20481;-77
2021/07/30 02:04:00;;;;;;;1.50;1.00;;;17.20;96.80;;;;;;4986530;28;20499;-78
2021/07/30 02:06:27;;;;;;;1.50;0.97;;;17.20;97.10;;;;;;4976567;28;20472;-77
2021/07/30 02:08:53;;;;;;;1.50;0.90;;;17.10;97.00;;;;;;4982609;28;20469;-76
2021/07/30 02:11:20;;;;;;;1.50;0.97;;;17.10;97.10;;;;;;4978351;28;20489;-77
2021/07/30 02:16:32;;;;;;;1.50;0.97;;;17.10;97.00;;;;;;4978895;28;20475;-76
2021/07/30 02:18:59;;;;;;;1.50;1.00;;;17.10;97.50;;;;;;4984378;28;20543;-77
2021/07/30 02:21:26;;;;;;;1.50;0.90;;;17.00;97.20;;;;;;4975978;28;20840;-75
2021/07/30 02:23:52;;;;;;;1.50;1.00;;;17.00;97.50;;;;;;4985100;28;20472;-76
2021/07/30 02:26:22;;;;;;;1.50;1.00;;;17.00;97.70;;;;;;4976579;28;21023;-76
2021/07/30 02:28:49;;;;;;;1.50;0.90;;;16.90;97.70;;;;;;4984742;28;20461;-78
2021/07/30 02:31:16;;;;;;;1.50;0.90;;;16.90;98.00;;;;;;4974251;28;20475;-77
2021/07/30 02:33:44;;;;;;;1.50;1.00;;;16.80;97.70;;;;;;4982342;28;20996;-77
2021/07/30 02:36:11;;;;;;;1.50;1.00;;;16.80;97.90;;;;;;4975764;28;20490;-77
2021/07/30 02:38:37;;;;;;;1.50;1.00;;;16.70;98.20;;;;;;4974366;28;20524;-76
2021/07/30 02:41:04;;;;;;;1.50;1.00;;;16.60;98.10;;;;;;4977898;28;20466;-77
2021/07/30 02:43:31;;;;;;;1.50;1.00;;;16.60;98.20;;;;;;4982864;28;20502;-76
2021/07/30 02:45:57;;;;;;;1.50;1.00;;;16.50;98.20;;;;;;4978890;28;20469;-76
2021/07/30 02:48:24;;;;;;;1.50;1.00;;;16.50;98.20;;;;;;4982019;28;21011;-76
2021/07/30 02:50:52;;;;;;;1.50;1.00;;;16.50;98.10;;;;;;4967990;28;20457;-76
2021/07/30 02:53:19;;;;;;;1.50;0.93;;;16.50;98.20;;;;;;4983213;28;20756;-76
2021/07/30 02:55:46;;;;;;;1.50;1.00;;;16.50;98.20;;;;;;4984507;28;20465;-75
2021/07/30 02:58:13;;;;;;;1.50;0.90;;;16.40;98.20;;;;;;4959258;28;20767;-75
2021/07/30 03:00:40;;;;;;;1.50;0.93;;;16.40;97.90;;;;;;4978139;28;20472;-76
2021/07/30 03:03:07;;;;;;;1.53;1.00;;;16.40;98.20;;;;;;4971106;28;20836;-76
2021/07/30 03:05:34;;;;;;;1.50;1.00;;;16.40;98.20;;;;;;4989152;28;20476;-76
2021/07/30 03:08:02;;;;;;;1.50;1.00;;;16.40;98.20;;;;;;4970024;28;20514;-76
2021/07/30 03:10:29;;;;;;;1.50;1.00;;;16.40;98.20;;;;;;4981637;28;20504;-76
2021/07/30 03:12:56;;;;;;;1.50;0.90;;;16.40;98.10;;;;;;4971752;28;21128;-76
2021/07/30 03:15:22;;;;;;;1.50;1.00;;;16.40;98.20;;;;;;4987248;28;20469;-76
2021/07/30 03:17:49;;;;;;;1.50;1.00;;;16.30;98.20;;;;;;4975527;28;20512;-75
2021/07/30 03:20:16;;;;;;;1.50;1.00;;;16.30;98.20;;;;;;4985900;28;20844;-75
2021/07/30 03:22:43;;;;;;;1.50;0.93;;;16.30;98.00;;;;;;4974668;28;20499;-75
2021/07/30 03:25:12;;;;;;;1.50;1.00;;;16.30;98.20;;;;;;4988690;28;20472;-75
2021/07/30 03:27:41;;;;;;;1.50;1.00;;;16.30;98.20;;;;;;4975583;28;20504;-75
2021/07/30 03:30:09;;;;;;;1.50;0.93;;;16.30;98.20;;;;;;4986474;28;20469;-75
2021/07/30 03:32:36;;;;;;;1.50;1.00;;;16.30;98.20;;;;;;4963637;28;20477;-75
2021/07/30 03:35:03;;;;;;;1.50;1.00;;;16.30;98.20;;;;;;4985133;28;20572;-75
2021/07/30 03:37:30;;;;;;;1.50;1.00;;;16.30;98.20;;;;;;4975425;28;20485;-75
2021/07/30 03:39:57;;;;;;;1.50;1.00;;;16.30;98.20;;;;;;4986339;28;20465;-75
2021/07/30 03:42:25;;;;;;;1.50;1.00;;;16.30;98.20;;;;;;4974322;28;20488;-75
2021/07/30 03:44:52;;;;;;;1.50;1.00;;;16.20;98.20;;;;;;4980219;28;20768;-75
2021/07/30 03:47:19;;;;;;;1.50;0.90;;;16.20;98.20;;;;;;4973101;28;20577;-75
2021/07/30 03:49:45;;;;;;;1.50;1.00;;;16.20;98.20;;;;;;4985906;28;20472;-75
2021/07/30 03:52:12;;;;;;;1.50;1.03;;;16.20;98.20;;;;;;4972382;28;21039;-75
2021/07/30 03:54:39;;;;;;;1.50;1.00;;;16.10;98.20;;;;;;4986801;28;20563;-75
2021/07/30 03:57:06;;;;;;;1.50;1.00;;;16.10;98.20;;;;;;4971885;28;20497;-76
2021/07/30 03:59:34;;;;;;;1.53;1.00;;;16.10;98.20;;;;;;4983425;28;21176;-76
2021/07/30 04:02:01;;;;;;;1.50;1.00;;;16.10;98.20;;;;;;4972303;28;20478;-75
2021/07/30 04:04:28;;;;;;;1.50;0.90;;;16.10;98.20;;;;;;4981089;28;20560;-75
2021/07/30 04:06:55;;;;;;;1.50;1.00;;;16.10;98.20;;;;;;4975936;28;20485;-75
2021/07/30 04:09:22;;;;;;;1.50;1.00;;;16.10;98.20;;;;;;4988292;28;20564;-76
2021/07/30 04:11:49;;;;;;;1.53;1.03;;;16.10;98.20;;;;;;4972428;28;20568;-75
2021/07/30 04:14:16;;;;;;;1.53;1.00;;;16.10;98.20;;;;;;4982403;28;20489;-76
2021/07/30 04:16:44;;;;;;;1.50;1.00;;;16.10;98.20;;;;;;4975739;28;20573;-75
2021/07/30 04:19:11;;;;;;;1.50;1.00;;;16.10;98.20;;;;;;4986711;28;20549;-77
2021/07/30 04:21:38;;;;;;;1.50;0.97;;;16.20;98.20;;;;;;4972501;28;20504;-76
2021/07/30 04:24:06;;;;;;;1.50;1.00;;;16.20;98.20;;;;;;4986343;28;20533;-76
2021/07/30 04:26:33;;;;;;;1.50;1.00;;;16.20;98.20;;;;;;4975148;28;20606;-76
2021/07/30 04:29:00;;;;;;;1.50;1.00;;;16.20;98.20;;;;;;4987250;28;20457;-76
2021/07/30 04:31:26;;;;;;;1.50;0.90;;;16.20;98.20;;;;;;4973406;28;20490;-76
2021/07/30 04:33:55;;;;;;;1.57;1.00;;;16.20;98.20;;;;;;4981709;28;21313;-76
2021/07/30 04:36:21;;;;;;;1.50;0.97;;;16.20;98.20;;;;;;4974965;28;21107;-76
2021/07/30 04:38:48;;;;;;;1.50;1.00;;;16.20;98.20;;;;;;4982538;28;20473;-76
2021/07/30 04:41:15;;;;;;;1.50;0.90;;;16.10;98.20;;;;;;4975895;28;20493;-76
2021/07/30 04:43:42;;;;;;;1.50;1.00;;;16.10;98.20;;;;;;4981938;28;20465;-76
2021/07/30 04:46:16;;;;;;;1.50;1.00;;;16.10;98.20;;;;;;4975648;28;20495;-75
2021/07/30 04:48:43;;;;;;;1.50;1.00;;;16.10;98.20;;;;;;4969793;28;20984;-76
2021/07/30 04:51:12;;;;;;;1.50;1.00;;;16.10;98.20;;;;;;4976705;28;21499;-77
2021/07/30 04:53:39;;;;;;;1.50;0.90;;;16.10;98.20;;;;;;4983942;28;20488;-76
2021/07/30 04:56:06;;;;;;;1.50;1.00;;;16.10;98.20;;;;;;4977111;28;20929;-77
2021/07/30 04:58:33;;;;;;;1.50;0.90;;;16.10;98.20;;;;;;4977018;28;20491;-76
2021/07/30 05:01:04;;;;;;;1.50;1.00;;;16.20;98.20;;;;;;4973423;28;20559;-76
2021/07/30 05:03:31;;;;;;;1.50;1.00;;;16.20;98.20;;;;;;4979543;28;20768;-75
2021/07/30 05:05:58;;;;;;;1.50;0.93;;;16.30;98.20;;;;;;4977521;28;20714;-75
2021/07/30 05:08:26;;;;;;;1.50;1.00;;;16.30;98.20;;;;;;4981259;28;20524;-76
2021/07/30 05:10:53;;;;;;;1.53;1.00;;;16.40;98.20;;;;;;4974216;28;20473;-76
2021/07/30 05:13:20;;;;;;;1.50;0.90;;;16.50;98.20;;;;;;4980024;28;20646;-76
2021/07/30 05:15:47;;;;;;;1.50;1.00;;;16.50;98.20;;;;;;4987796;28;20485;-76
2021/07/30 05:18:14;;;;;;;1.60;1.13;;;16.60;98.20;;;;;;4987125;28;20517;-75
2021/07/30 05:20:41;;;;;;;1.50;0.90;;;16.70;97.40;;;;;;4987325;28;20500;-74
2021/07/30 05:23:09;;;;;;;1.50;1.00;;;16.70;97.40;;;;;;4975684;28;20488;-74
2021/07/30 05:25:38;;;;;;;1.50;1.10;;;16.80;96.70;;;;;;4990456;28;20520;-74
2021/07/30 05:28:06;;;;;;;1.57;1.00;;;16.80;96.60;;;;;;4982842;28;20648;-76
2021/07/30 05:30:35;;;;;;;1.50;0.90;;;16.80;96.40;;;;;;4994631;28;20461;-77
2021/07/30 05:33:02;;;;;;;1.50;0.97;;;16.80;96.10;;;;;;4980512;28;20491;-76
2021/07/30 05:35:30;;;;;;;1.50;1.00;;;16.80;96.00;;;;;;4993152;28;20510;-75
2021/07/30 05:37:57;;;;;;;1.50;0.90;;;16.90;96.00;;;;;;4980373;28;20488;-75
2021/07/30 05:40:24;;;;;;;1.50;1.00;;;16.90;95.90;;;;;;4987793;28;20469;-75
2021/07/30 05:42:52;;;;;;;1.50;0.90;;;17.00;96.00;;;;;;4977744;28;20473;-76
2021/07/30 05:45:19;;;;;;;1.50;0.90;;;17.10;95.80;;;;;;4990159;28;20497;-76
2021/07/30 05:47:48;;;;;;;3.50;3.00;;;17.30;96.20;;;;;;4982064;28;20551;-75
2021/07/30 05:50:15;;;;;;;1.53;1.00;;;17.40;97.50;;;;;;4991687;28;20484;-74
2021/07/30 05:52:42;;;;;;;1.50;1.00;;;17.70;96.30;;;;;;4979863;28;20519;-77
2021/07/30 05:55:10;;;;;;;1.53;0.93;;;17.80;95.40;;;;;;4986464;28;20517;-75
2021/07/30 05:57:37;;;;;;;1.50;0.90;;;17.90;93.60;;;;;;4977337;28;20543;-77
2021/07/30 06:00:07;;;;;;;1.50;0.90;;;18.10;93.20;;;;;;4992495;28;20523;-76
2021/07/30 06:02:34;;;;;;;1.53;0.97;;;18.20;92.60;;;;;;4974491;28;20564;-76
2021/07/30 06:05:01;;;;;;;1.50;0.90;;;18.30;92.60;;;;;;4989079;28;20519;-76
2021/07/30 06:07:28;;;;;;;1.50;0.90;;;18.50;93.20;;;;;;4979088;28;20487;-76
2021/07/30 06:09:55;;;;;;;1.50;0.90;;;18.60;92.70;;;;;;4996135;28;20461;-76
2021/07/30 06:12:22;;;;;;;1.50;1.00;;;18.80;91.80;;;;;;4986198;28;20591;-76
2021/07/30 06:14:49;;;;;;;1.50;0.90;;;19.00;91.40;;;;;;4994827;28;21025;-76
2021/07/30 06:17:17;;;;;;;1.50;1.00;;;19.20;91.10;;;;;;4984828;28;20515;-76
2021/07/30 06:19:44;;;;;;;1.50;0.90;;;19.50;91.10;;;;;;4992693;28;20477;-76
2021/07/30 06:22:11;;;;;;;1.50;0.93;;;19.70;89.80;;;;;;4970851;28;20485;-77
2021/07/30 06:24:39;;;;;;;1.50;0.93;;;19.70;89.60;;;;;;4988172;28;20469;-76
2021/07/30 06:27:06;;;;;;;1.50;0.90;;;20.00;88.90;;;;;;4982430;28;20560;-77
2021/07/30 06:29:33;;;;;;;1.50;1.00;;;20.00;87.90;;;;;;4991507;28;20462;-77
2021/07/30 06:32:00;;;;;;;1.50;0.90;;;20.10;88.50;;;;;;4987091;28;20559;-76
2021/07/30 06:34:28;;;;;;;1.60;1.00;;;20.30;87.80;;;;;;4993518;28;20489;-76
2021/07/30 06:36:56;;;;;;;1.50;0.90;;;20.50;87.90;;;;;;4986195;28;20514;-76
2021/07/30 06:39:24;;;;;;;1.50;0.90;;;20.70;87.50;;;;;;4988739;28;20467;-77
2021/07/30 06:41:51;;;;;;;1.50;1.00;;;20.90;87.00;;;;;;4976442;28;20565;-77
2021/07/30 06:44:18;;;;;;;1.50;0.90;;;21.10;85.40;;;;;;4983382;28;20564;-76
2021/07/30 06:46:45;;;;;;;1.50;0.90;;;21.10;85.90;;;;;;4982510;28;20492;-76
2021/07/30 06:49:12;;;;;;;1.50;0.90;;;21.10;85.30;;;;;;4990404;28;20480;-75
2021/07/30 06:51:40;;;;;;;1.50;1.00;;;21.10;85.50;;;;;;4975637;28;20484;-76
2021/07/30 06:54:07;;;;;;;1.50;0.90;;;21.10;85.50;;;;;;4991304;28;20975;-76
2021/07/30 06:56:37;;;;;;;1.50;0.90;;;21.20;85.70;;;;;;4997991;28;20453;-76
2021/07/30 06:59:04;;;;;;;1.50;0.90;;;21.30;85.00;;;;;;4991574;28;20457;-76
2021/07/30 07:01:31;;;;;;;1.50;0.90;;;21.40;85.40;;;;;;4982500;28;20504;-76
2021/07/30 07:03:59;;;;;;;1.50;0.90;;;21.50;84.90;;;;;;4993391;28;20469;-77
2021/07/30 07:06:26;;;;;;;1.50;0.90;;;21.50;84.30;;;;;;4981884;28;20568;-76
2021/07/30 07:08:57;;;;;;;1.50;0.90;;;21.60;84.70;;;;;;4988618;28;20465;-76
2021/07/30 07:11:24;;;;;;;1.50;0.90;;;21.70;84.70;;;;;;4977130;28;20488;-76
2021/07/30 07:13:51;;;;;;;1.50;0.90;;;21.90;84.90;;;;;;4985873;28;20503;-76
2021/07/30 07:16:20;;;;;;;1.50;0.90;;;22.00;83.80;;;;;;4982877;28;20576;-75
2021/07/30 07:18:47;;;;;;;1.50;0.90;;;22.30;83.10;;;;;;4986106;28;20473;-77
2021/07/30 07:21:14;;;;;;;1.50;0.90;;;22.50;82.90;;;;;;4977178;28;20979;-77
2021/07/30 07:23:41;;;;;;;1.50;0.90;;;22.60;82.80;;;;;;4988786;28;20524;-77
2021/07/30 07:26:10;;;;;;;1.50;0.90;;;22.70;83.00;;;;;;4980658;28;20579;-77
2021/07/30 07:28:36;;;;;;;1.50;0.90;;;23.00;82.40;;;;;;4990055;28;20564;-76
2021/07/30 07:31:03;;;;;;;1.50;0.90;;;23.20;81.40;;;;;;4977547;28;20972;-77
2021/07/30 07:33:30;;;;;;;1.50;0.90;;;23.30;80.40;;;;;;4984404;28;20458;-77
2021/07/30 07:35:59;;;;;;;1.50;0.90;;;23.40;81.10;;;;;;4979126;28;20521;-75
2021/07/30 07:38:26;;;;;;;1.50;0.90;;;23.60;81.40;;;;;;4982938;28;20489;-78
2021/07/30 07:40:55;;;;;;;1.50;0.90;;;23.90;80.70;;;;;;4976453;28;20465;-75
2021/07/30 07:43:23;;;;;;;1.50;0.90;;;24.20;78.20;;;;;;4974383;28;20461;-77
2021/07/30 07:45:50;;;;;;;1.50;0.80;;;24.40;78.40;;;;;;4977038;28;20468;-77
2021/07/30 07:48:17;;;;;;;1.50;0.90;;;24.60;77.50;;;;;;4983250;28;20482;-76
2021/07/30 07:50:43;;;;;;;1.50;0.90;;;24.60;77.70;;;;;;4986136;28;20555;-76
2021/07/30 07:53:14;;;;;;;1.50;0.80;;;24.50;77.50;;;;;;4974570;28;20476;-75
2021/07/30 07:55:41;;;;;;;1.50;0.90;;;24.50;77.30;;;;;;4989795;28;20559;-76
2021/07/30 07:58:08;;;;;;;1.50;0.90;;;24.50;77.30;;;;;;4973842;28;20490;-77
2021/07/30 08:00:36;;;;;;;1.50;0.90;;;24.60;77.20;;;;;;4985823;28;20491;-78
2021/07/30 08:03:03;;;;;;;1.50;0.87;;;24.70;76.90;;;;;;4967318;28;20496;-78
2021/07/30 08:05:30;;;;;;;1.60;1.10;;;24.60;78.10;;;;;;4987100;28;20469;-75
2021/07/30 08:07:58;;;;;;;1.50;0.87;;;24.60;77.60;;;;;;4971701;28;20493;-78
2021/07/30 08:10:25;;;;;;;1.50;0.80;;;24.70;78.00;;;;;;4985405;28;21055;-78
2021/07/30 08:12:52;;;;;;;1.50;0.90;;;24.80;76.90;;;;;;4968859;28;20485;-77
2021/07/30 08:15:19;;;;;;;1.50;0.90;;;24.70;76.80;;;;;;4985224;28;20591;-77
2021/07/30 08:17:47;;;;;;;1.50;0.90;;;24.70;77.20;;;;;;4973283;28;20489;-77
2021/07/30 08:20:15;;;;;;;1.50;0.90;;;24.80;77.50;;;;;;4984017;28;20484;-76
2021/07/30 08:22:43;;;;;;;1.50;0.90;;;24.90;76.70;;;;;;4958681;28;20890;-75
2021/07/30 08:25:10;;;;;;;1.60;1.00;;;25.20;77.00;;;;;;4987019;28;21007;-77
2021/07/30 08:27:37;;;;;;;1.50;0.90;;;25.40;76.40;;;;;;4959831;28;20985;-77
2021/07/30 08:30:05;;;;;;;1.50;0.80;;;25.60;76.00;;;;;;4986783;28;20468;-77
2021/07/30 08:32:31;;;;;;;1.50;0.90;;;25.80;76.20;;;;;;4977002;28;20486;-78
2021/07/30 08:35:00;;;;;;;1.50;0.80;;;25.90;74.40;;;;;;4987050;28;20492;-77
2021/07/30 08:37:36;;;;;;;1.47;0.80;;;26.00;74.80;;;;;;4976407;28;21032;-78
2021/07/30 08:40:06;;;;;;;1.50;0.80;;;26.10;74.70;;;;;;4985980;28;20469;-77
2021/07/30 08:42:36;;;;;;;1.50;0.90;;;26.30;74.50;;;;;;4969658;28;20527;-77
2021/07/30 08:45:05;;;;;;;1.50;0.80;;;26.40;74.50;;;;;;4983140;28;20468;-79
2021/07/30 08:47:32;;;;;;;1.50;0.87;;;26.60;74.70;;;;;;4973077;28;20479;-78
2021/07/30 08:50:01;;;;;;;1.50;0.80;;;26.80;72.10;;;;;;4985702;28;20479;-77
2021/07/30 08:52:32;;;;;;;1.50;0.90;;;27.00;72.70;;;;;;4974947;28;20485;-77
2021/07/30 08:54:59;;;;;;;1.50;0.80;;;27.10;71.90;;;;;;4980843;28;20520;-78
2021/07/30 08:57:26;;;;;;;1.50;0.80;;;27.30;71.00;;;;;;4966913;28;20481;-77
2021/07/30 08:59:53;;;;;;;1.50;0.80;;;27.40;71.80;;;;;;4978784;28;20461;-77
2021/07/30 09:02:19;;;;;;;1.50;0.90;;;27.60;72.70;;;;;;4968195;28;20489;-77
2021/07/30 09:04:46;;;;;;;1.50;0.80;;;27.80;71.40;;;;;;4991349;28;20476;-77
2021/07/30 09:07:15;;;;;;;1.50;0.80;;;27.90;70.20;;;;;;4977496;28;20481;-79
2021/07/30 09:09:53;;;;;;;1.50;0.90;;;28.10;69.40;;;;;;4991294;28;20552;-77
2021/07/30 09:12:22;;;;;;;1.50;0.90;;;28.00;69.90;;;;;;4978377;28;20488;-75
2021/07/30 09:14:49;;;;;;;1.50;0.80;;;27.90;69.40;;;;;;4983388;28;20456;-75
2021/07/30 09:17:16;;;;;;;1.50;0.90;;;27.90;69.40;;;;;;4972041;28;20847;-76
2021/07/30 09:20:03;;;;;;;1.50;0.87;;;27.90;70.40;;;;;;4990827;28;20863;-77
2021/07/30 09:22:48;;;;;;;1.47;0.80;;;27.90;70.70;;;;;;4978477;28;20476;-75
2021/07/30 09:25:32;;;;;;;1.47;0.80;;;28.00;68.90;;;;;;4990857;28;20452;-76
2021/07/30 09:28:03;;;;;;;1.50;0.80;;;28.00;68.80;;;;;;4973981;28;20479;-76
2021/07/30 09:30:29;;;;;;;1.43;0.80;;;28.00;68.90;;;;;;4985080;28;20496;-77
2021/07/30 09:32:56;;;;;;;1.40;0.80;;;28.00;70.30;;;;;;4977692;28;20472;-75
2021/07/30 09:35:23;;;;;;;1.50;0.80;;;27.90;70.30;;;;;;4989150;28;20499;-75
2021/07/30 09:38:14;;;;;;;1.50;0.80;;;28.10;71.00;;;;;;4973768;28;20508;-78
2021/07/30 09:40:40;;;;;;;1.50;0.80;;;28.20;68.70;;;;;;4988423;28;20471;-76
2021/07/30 09:43:21;;;;;;;1.47;0.80;;;28.30;69.00;;;;;;4974817;28;20481;-77
2021/07/30 09:45:48;;;;;;;1.50;0.90;;;28.30;68.50;;;;;;4981832;28;20519;-76
2021/07/30 09:48:14;;;;;;;1.47;0.80;;;28.40;69.00;;;;;;4985292;28;20499;-77
2021/07/30 09:50:41;;;;;;;1.47;0.80;;;28.40;68.70;;;;;;4990034;28;20465;-77
2021/07/30 09:53:10;;;;;;;1.47;0.80;;;28.40;67.80;;;;;;4956107;28;20477;-77
2021/07/30 09:55:39;;;;;;;1.50;0.80;;;28.30;68.60;;;;;;4982060;28;20487;-75
2021/07/30 09:58:07;;;;;;;1.50;0.90;;;28.20;69.20;;;;;;4975048;28;20496;-78
2021/07/30 10:00:36;;;;;;;1.50;0.80;;;28.10;69.00;;;;;;4985119;28;20460;-76
2021/07/30 10:03:04;;;;;;;1.50;0.83;;;28.20;69.40;;;;;;4970966;28;20502;-77
2021/07/30 10:05:32;;;;;;;1.50;0.80;;;28.30;70.50;;;;;;4989386;28;20464;-79
2021/07/30 10:07:59;;;;;;;1.43;0.80;;;28.50;68.80;;;;;;4976527;28;20906;-80
2021/07/30 10:10:29;;;;;;;1.50;0.80;;;28.80;69.10;;;;;;4992842;28;20472;-80
2021/07/30 10:12:58;;;;;;;1.50;0.90;;;29.10;67.80;;;;;;4979198;28;20500;-80
2021/07/30 10:15:25;;;;;;;1.50;0.80;;;29.40;67.40;;;;;;4990548;28;20570;-78
2021/07/30 10:17:55;;;;;;;1.50;0.80;;;29.60;67.10;;;;;;4982664;28;20492;-78
2021/07/30 10:20:23;;;;;;;1.50;0.80;;;29.70;66.50;;;;;;4992614;28;20464;-80
2021/07/30 10:22:53;;;;;;;1.50;0.80;;;29.80;65.60;;;;;;4978666;28;20567;-79
2021/07/30 10:25:23;;;;;;;1.50;0.80;;;29.80;66.00;;;;;;4993375;28;20464;-79
2021/07/30 10:27:55;;;;;;;1.40;0.80;;;29.80;65.70;;;;;;4981819;28;20493;-79
2021/07/30 10:30:21;;;;;;;1.43;0.83;;;29.60;65.80;;;;;;4986538;28;20472;-78
2021/07/30 10:32:51;;;;;;;1.47;0.80;;;29.40;65.50;;;;;;4981657;28;20502;-78
2021/07/30 10:35:19;;;;;;;1.47;0.90;;;29.30;66.70;;;;;;4988367;28;20460;-78
2021/07/30 10:37:47;;;;;;;1.50;0.80;;;29.40;66.20;;;;;;4977373;28;20885;-77
2021/07/30 10:40:19;;;;;;;1.50;0.80;;;29.50;65.40;;;;;;4990122;28;20495;-80
2021/07/30 10:43:04;;;;;;;1.50;0.90;;;29.50;65.70;;;;;;4974905;28;20481;-80
2021/07/30 10:45:32;;;;;;;1.43;0.80;;;29.30;66.30;;;;;;4989954;28;20471;-78
2021/07/30 10:48:39;;;;;;;1.40;0.80;;;29.30;66.10;;;;;;4979663;28;20492;-76
2021/07/30 10:51:26;;;;;;;1.47;0.80;;;29.50;65.80;;;;;;4984571;28;20784;-77
2021/07/30 10:53:57;;;;;;;1.43;0.80;;;29.80;64.90;;;;;;4990632;28;20875;-77
2021/07/30 10:56:51;;;;;;;1.47;0.80;;;30.00;63.60;;;;;;4974633;28;20472;-74
2021/07/30 10:59:23;;;;;;;1.47;0.80;;;30.10;64.80;;;;;;4990901;28;20464;-76
2021/07/30 11:02:00;;;;;;;1.50;0.80;;;30.10;65.00;;;;;;4979807;28;21066;-77
2021/07/30 11:04:27;;;;;;;1.47;0.80;;;30.20;64.60;;;;;;4984061;28;20468;-76
2021/07/30 11:06:59;;;;;;;1.43;0.80;;;30.20;65.50;;;;;;4980988;28;20883;-79
2021/07/30 11:09:40;;;;;;;1.47;0.80;;;30.40;65.80;;;;;;4983881;28;20469;-77
2021/07/30 11:12:13;;;;;;;1.43;0.80;;;30.50;63.40;;;;;;4977323;28;20477;-77
2021/07/30 11:14:45;;;;;;;1.47;0.80;;;30.40;63.50;;;;;;4990512;28;20843;-78
2021/07/30 11:17:12;;;;;;;1.47;0.80;;;30.40;63.40;;;;;;4981627;28;20507;-75
2021/07/30 11:19:41;;;;;;;1.50;0.80;;;30.40;63.80;;;;;;4991746;28;20555;-76
2021/07/30 11:22:09;;;;;;;1.47;0.80;;;30.00;64.20;;;;;;4979647;28;20518;-75
2021/07/30 11:24:41;;;;;;;1.47;0.80;;;29.70;64.80;;;;;;4993412;28;20828;-78
2021/07/30 11:27:11;;;;;;;1.43;0.90;;;29.60;64.90;;;;;;4979144;28;20499;-76
2021/07/30 11:29:42;;;;;;;1.97;1.10;;;29.50;64.50;;;;;;4987516;28;20491;-76
2021/07/30 11:32:14;;;;;;;1.47;0.80;;;29.40;65.80;;;;;;4982120;28;20484;-75
2021/07/30 11:34:42;;;;;;;1.50;1.10;;;29.30;65.50;;;;;;4993347;28;20464;-77
2021/07/30 11:37:11;;;;;;;1.47;0.80;;;29.20;65.70;;;;;;4975629;28;20481;-77
2021/07/30 11:39:39;;;;;;;1.47;0.80;;;29.10;65.60;;;;;;4991793;28;20889;-77
2021/07/30 11:42:07;;;;;;;1.50;0.80;;;29.00;65.60;;;;;;4982303;28;20489;-77
2021/07/30 11:44:46;;;;;;;1.47;0.80;;;29.10;64.70;;;;;;4990078;28;20955;-75
2021/07/30 11:47:16;;;;;;;1.47;0.80;;;29.20;63.10;;;;;;4979866;28;20544;-76
2021/07/30 11:49:44;;;;;;;1.47;0.80;;;29.60;63.90;;;;;;4988926;28;20476;-75
2021/07/30 11:52:13;;;;;;;1.50;0.80;;;29.80;63.40;;;;;;4980116;28;20488;-77
2021/07/30 11:54:40;;;;;;;1.47;0.80;;;30.10;62.70;;;;;;4990939;28;20802;-75
2021/07/30 11:57:07;;;;;;;1.47;0.80;;;30.20;61.70;;;;;;4984448;28;20708;-76
2021/07/30 11:59:45;;;;;;;1.43;0.80;;;30.10;62.20;;;;;;4988343;28;20575;-75
2021/07/30 12:02:12;;;;;;;1.43;0.87;;;30.10;61.70;;;;;;4979877;28;20523;-76
2021/07/30 12:04:50;;;;;;;1.50;0.80;;;30.00;62.60;;;;;;4984394;28;20977;-76
2021/07/30 12:07:20;;;;;;;1.43;0.80;;;30.00;62.20;;;;;;4977384;28;20837;-75
2021/07/30 12:09:50;;;;;;;1.47;0.80;;;29.90;62.00;;;;;;4990368;28;20817;-75
2021/07/30 12:12:18;;;;;;;1.50;0.80;;;29.80;63.90;;;;;;4975924;28;20927;-76
2021/07/30 12:14:48;;;;;;;1.43;0.80;;;29.80;62.50;;;;;;4990296;28;20830;-77
2021/07/30 12:17:16;;;;;;;1.47;0.80;;;29.90;62.90;;;;;;4975253;28;20492;-76
2021/07/30 12:19:44;;;;;;;1.47;0.80;;;30.10;63.50;;;;;;4985308;28;20854;-77
2021/07/30 12:22:12;;;;;;;1.50;0.80;;;30.40;62.30;;;;;;4978191;28;20499;-76
2021/07/30 12:24:49;;;;;;;1.43;0.80;;;30.30;63.30;;;;;;4988024;28;20480;-75
2021/07/30 12:27:17;;;;;;;1.43;0.80;;;30.20;62.70;;;;;;4973046;28;20488;-76
2021/07/30 12:29:46;;;;;;;1.43;0.90;;;30.20;63.20;;;;;;4978348;28;20469;-76
2021/07/30 12:32:15;;;;;;;1.47;0.80;;;30.40;63.30;;;;;;4972743;28;20520;-76
2021/07/30 12:34:55;;;;;;;1.47;0.80;;;30.60;63.40;;;;;;4988868;28;20456;-75
2021/07/30 12:37:22;;;;;;;1.47;0.80;;;30.80;61.40;;;;;;4980343;28;20491;-75
2021/07/30 12:39:51;;;;;;;1.47;0.80;;;30.80;61.70;;;;;;4988012;28;20531;-76
2021/07/30 12:42:22;;;;;;;1.50;0.80;;;31.00;62.60;;;;;;4980580;28;20237;-76
2021/07/30 12:45:11;;;;;;;1.47;0.80;;;31.00;62.00;;;;;;4990571;28;20460;-76
2021/07/30 12:47:40;;;;;;;1.47;0.80;;;30.80;61.40;;;;;;4966764;28;20503;-75
2021/07/30 12:50:28;;;;;;;1.43;0.80;;;30.50;62.30;;;;;;4990456;28;20539;-75
2021/07/30 12:53:15;;;;;;;1.43;0.80;;;30.50;62.70;;;;;;4975856;28;20485;-76
2021/07/30 12:56:02;;;;;;;1.47;0.80;;;30.50;62.20;;;;;;4994820;28;20495;-75
2021/07/30 12:58:30;;;;;;;1.43;0.80;;;30.40;61.90;;;;;;4965824;28;20508;-76